Latest Coastal Weather Observations for Portland Airport

IDV60701

Issued at 1:41 pm EST Thursday 1 September 2016 (issued every 10 minutes, with the page automatically refreshed every 10 minutes)

About coastal observations | Map of coastal stations | Coastal observations for VIC | Marine services | Other Formats
Station Details ID: 090171 Name: CASHMORE AIRPORT Lat: -38.31 Lon: 141.47 Height: 80.9 m
Data from the previous 72 hours. | See also: Recent months at Portland Airport
Date/Time
EST
Temp
°C
Wind Pressure Rain since
9am
mm
Weather Cloud Vis
km
Sea
Height
m
Swell
Dir  Spd
kts
Gust
kts
hPa Trend Height
m
Period
s
Dir
01/01:30pm 13.0 SSE 6 8 1016.5 - 2.6 - Partly cloudy 10 - - - -
01/01:00pm 12.7 SE 5 8 1016.9 - 2.6 - Partly cloudy 10 - - - -
01/12:30pm 11.6 SE 6 9 1017.5 - 2.6 - Partly cloudy 10 - - - -
01/12:28pm 11.5 SE 7 9 1017.6 - 2.6 - Partly cloudy 10 - - - -
01/12:11pm 11.3 SE 6 8 1017.8 - 2.4 - Partly cloudy 6 - - - -
01/12:00pm 11.5 SE 6 7 1018.0 - 2.2 Recent precip. Cloudy 6 - - - -
01/11:35am 11.4 S 3 5 1018.2 - 1.2 - Partly cloudy 5 - - - -
01/11:30am 11.4 SSW 3 5 1018.2 - 1.0 - Partly cloudy 6 - - - -
01/11:25am 11.5 SSW 4 7 1018.2 - 0.8 - Partly cloudy 6 - - - -
01/11:12am 11.4 SSW 5 7 1018.2 - 0.0 - Partly cloudy 6 - - - -
01/11:06am 11.5 SW 5 8 1018.2 - 0.0 - Partly cloudy 10 - - - -
01/11:00am 12.4 N 2 8 1018.2 - 0.0 - Partly cloudy 10 - - - -
01/10:30am 11.6 NE 3 4 1018.4 - 0.0 - Partly cloudy 10 - - - -
01/10:00am 11.3 NNE 4 5 1018.4 - 0.0 - Partly cloudy 10 - - - -
01/09:30am 11.0 N 5 6 1018.4 - 0.0 - Partly cloudy 10 - - - -
01/09:26am 10.9 N 4 6 1018.4 - 0.0 - Partly cloudy 10 - - - -
01/09:00am 10.7 N 4 6 1018.4 - 8.0 Recent precip. Cloudy 10 - - - -
01/08:57am 10.6 N 4 6 1018.4 - 8.0 - Partly cloudy 10 - - - -
01/08:53am 10.4 N 4 6 1018.4 - 8.0 - Partly cloudy 10 - - - -
01/08:43am 10.4 NNW 5 6 1018.3 - 7.8 - Partly cloudy 8 - - - -
01/08:35am 10.5 NNW 5 7 1018.4 - 7.8 - Partly cloudy 7 - - - -
01/08:30am 10.4 NNW 5 7 1018.3 - 7.8 - Partly cloudy 5 - - - -
01/08:24am 10.5 NNW 5 6 1018.3 - 7.6 - Partly cloudy 6 - - - -
01/08:00am 10.4 N 4 5 1018.2 - 7.4 - Partly cloudy 10 - - - -
01/07:43am 10.2 N 4 5 1018.1 - 7.4 - Partly cloudy 10 - - - -
01/07:30am 10.2 NNW 3 5 1018.0 - 7.4 - Partly cloudy 10 - - - -
01/07:10am 10.1 NNW 4 5 1017.7 - 7.4 - Partly cloudy 9 - - - -
01/07:00am 10.1 NNW 4 6 1017.7 - 7.4 - Partly cloudy 6 - - - -
01/06:58am 10.1 NNW 4 6 1017.7 - 7.4 - Partly cloudy 6 - - - -
01/06:57am 10.1 NNW 5 6 1017.7 - 7.4 - Partly cloudy 7 - - - -
01/06:55am 10.1 NNW 5 6 1017.7 - 7.4 - Partly cloudy 7 - - - -
01/06:37am 10.2 NW 3 5 1017.6 - 7.2 - Partly cloudy 6 - - - -
01/06:30am 10.3 NW 4 5 1017.5 - 7.2 - Cloudy 10 - - - -
01/06:04am 10.2 NNW 5 7 1017.5 - 7.0 - Partly cloudy 10 - - - -
01/06:00am 10.1 NNW 6 7 1017.5 - 7.0 Recent precip. Cloudy 10 - - - -
01/05:37am 10.1 NNW 5 6 1017.3 - 7.0 - Partly cloudy 10 - - - -
01/05:30am 10.3 NNW 4 5 1017.3 - 7.0 - Partly cloudy 9 - - - -
01/05:23am 10.3 NNW 4 5 1017.3 - 7.0 - Partly cloudy 6 - - - -
01/05:19am 10.3 NNW 5 5 1017.3 - 6.8 - Partly cloudy 10 - - - -
01/05:00am 10.4 NNW 4 6 1017.4 - 6.8 - Partly cloudy 5 - - - -
01/04:58am 10.4 NNW 4 5 1017.4 - 6.8 - Partly cloudy 6 - - - -
01/04:54am 10.4 NNW 4 5 1017.4 - 6.6 - Partly cloudy 10 - - - -
01/04:49am 10.4 N 4 5 1017.4 - 6.6 - Partly cloudy 10 - - - -
01/04:30am 10.5 NW 4 6 1017.3 - 6.6 - Partly cloudy 6 - - - -
01/04:27am 10.5 NW 5 6 1017.3 - 6.6 - Partly cloudy 6 - - - -
01/04:25am 10.5 NW 5 6 1017.3 - 6.6 - Partly cloudy 6 - - - -
01/04:23am 10.5 NW 5 6 1017.3 - 6.6 - Partly cloudy 7 - - - -
01/04:22am 10.5 WNW 5 6 1017.3 - 6.6 - Partly cloudy 8 - - - -
01/04:00am 10.6 WNW 5 7 1017.3 - 6.2 - Partly cloudy 3 - - - -
01/03:30am 10.6 NNW 4 6 1017.4 - 5.8 - Partly cloudy 7 - - - -
01/03:22am 10.6 NW 5 8 1017.3 - 5.6 - Partly cloudy 4 - - - -
01/03:09am 10.6 NW 7 11 1017.4 - 3.4 - Partly cloudy 5 - - - -
01/03:00am 10.6 NW 5 6 1017.4 - 2.6 Recent precip. Cloudy 10 - - - -
01/02:53am 10.6 NW 5 6 1017.4 - 2.6 - Partly cloudy 10 - - - -
01/02:41am 10.8 WNW 5 7 1017.5 - 2.6 - Partly cloudy 5 - - - -
01/02:30am 10.9 WSW 5 8 1017.5 - 2.6 - Partly cloudy 5 - - - -
01/02:23am 10.9 WNW 5 7 1017.5 - 2.4 - Partly cloudy 6 - - - -
01/02:00am 10.8 NW 4 5 1017.5 - 2.4 - Partly cloudy 10 - - - -
01/01:30am 10.9 WNW 5 6 1017.7 - 2.4 - Cloudy 10 - - - -
01/01:00am 10.5 W 4 5 1017.6 - 2.4 - Cloudy 10 - - - -
01/12:30am 10.2 W 5 6 1017.3 - 2.4 - Cloudy 10 - - - -
01/12:00am 10.5 W 5 6 1017.3 - 2.4 - Mostly cloudy 10 - - - -
 
Date/Time
EST
Temp
°C
Wind Pressure Rain since
9am
mm
Weather Cloud Vis
km
Sea
Height
m
Swell
Dir  Spd
kts
Gust
kts
hPa Trend Height
m
Period
s
Dir
31/11:30pm 11.0 W 6 9 1017.3 - 2.4 - Partly cloudy 10 - - - -
31/11:00pm 11.1 WSW 6 7 1017.3 - 2.4 - Partly cloudy 10 - - - -
31/10:49pm 11.1 WSW 8 11 1017.3 - 2.4 - Partly cloudy 10 - - - -
31/10:40pm 11.0 WSW 7 9 1017.3 - 2.4 - Partly cloudy 8 - - - -
31/10:30pm 11.1 WSW 9 13 1017.3 - 2.4 - Partly cloudy 3 - - - -
31/10:29pm 11.1 W 9 13 1017.3 - 2.4 - Partly cloudy 3 - - - -
31/10:22pm 11.1 W 6 11 1017.3 - 1.8 - Partly cloudy 6 - - - -
31/10:20pm 11.0 WSW 5 8 1017.4 - 1.4 - Partly cloudy 10 - - - -
31/10:00pm 11.2 WSW 5 6 1017.1 - 0.8 - Partly cloudy 10 - - - -
31/09:30pm 11.4 WSW 6 8 1017.1 - 0.8 - Partly cloudy 10 - - - -
31/09:28pm 11.5 WSW 6 8 1017.1 - 0.8 - Partly cloudy 10 - - - -
31/09:19pm 11.5 W 6 9 1016.9 - 0.8 - Partly cloudy 10 - - - -
31/09:00pm 11.3 WSW 8 11 1016.8 - 0.8 Recent precip. Cloudy 6 - - - -
31/08:37pm 11.6 WSW 10 13 1016.6 - 0.6 - Partly cloudy 6 - - - -
31/08:30pm 11.5 WSW 8 12 1016.5 - 0.6 - Partly cloudy 10 - - - -
31/08:00pm 11.2 W 7 10 1016.1 - 0.6 - Partly cloudy 10 - - - -
31/07:30pm 11.3 W 7 10 1015.7 - 0.6 - Partly cloudy 10 - - - -
31/07:00pm 11.7 W 9 11 1015.5 - 0.6 - Partly cloudy 10 - - - -
31/06:30pm 11.7 W 10 13 1015.2 - 0.6 - Partly cloudy 10 - - - -
31/06:08pm 12.2 W 10 13 1015.1 - 0.6 - Partly cloudy 10 - - - -
31/06:00pm 12.2 W 11 13 1015.0 - 0.6 - Cloudy 10 - - - -
31/05:50pm 12.4 W 11 15 1014.9 - 0.6 - Partly cloudy 10 - - - -
31/05:30pm 12.4 W 12 16 1014.7 - 0.6 - Partly cloudy 10 - - - -
31/05:00pm 12.5 WNW 12 16 1014.4 - 0.6 - Partly cloudy 10 - - - -
31/04:30pm 12.8 W 13 18 1014.0 - 0.6 - Partly cloudy 10 - - - -
31/04:28pm 12.8 W 12 16 1014.0 - 0.6 - Partly cloudy 10 - - - -
31/04:00pm 13.5 W 12 17 1014.0 - 0.6 - Partly cloudy 10 - - - -
31/03:51pm 12.7 W 13 17 1013.9 - 0.6 - Partly cloudy 10 - - - -
31/03:30pm 12.5 W 12 19 1013.9 - 0.6 - Partly cloudy 10 - - - -
31/03:08pm 13.1 WNW 14 21 1013.8 - 0.6 - Partly cloudy 10 - - - -
31/03:00pm 13.4 WNW 13 19 1013.8 - 0.6 Recent precip. Cloudy 10 - - - -
31/02:31pm 12.0 W 14 19 1013.8 - 0.6 - Partly cloudy 10 - - - -
31/02:30pm 11.9 W 14 19 1013.8 - 0.6 - Partly cloudy 10 - - - -
31/02:22pm 11.7 W 17 24 1013.7 - 0.6 - Partly cloudy 10 - - - -
31/02:13pm 12.5 W 15 21 1013.6 - 0.6 - Partly cloudy 9 - - - -
31/02:02pm 12.7 W 14 23 1013.6 - 0.2 - Partly cloudy 6 - - - -
31/02:00pm 12.8 W 13 23 1013.5 - 0.2 - Partly cloudy 10 - - - -
31/01:52pm 13.1 W 13 18 1013.5 - 0.2 - Partly cloudy 10 - - - -
31/01:35pm 12.7 W 15 20 1013.5 - 0.0 - Partly cloudy 6 - - - -
31/01:30pm 13.3 W 17 23 1013.5 - 0.0 - Partly cloudy 10 - - - -
31/01:00pm 14.5 W 16 24 1013.4 - 0.0 - Partly cloudy 10 - - - -
31/12:30pm 14.5 WNW 15 21 1013.6 - 0.0 - Partly cloudy 10 - - - -
31/12:00pm 14.3 WNW 18 24 1013.6 - 0.0 - Cloudy 10 - - - -
31/11:30am 14.5 WNW 17 23 1013.6 - 0.0 - Partly cloudy 10 - - - -
31/11:00am 14.2 WNW 17 24 1013.5 - 0.0 - Partly cloudy 10 - - - -
31/10:30am 12.9 WNW 13 17 1013.4 - 0.0 - Partly cloudy 10 - - - -
31/10:29am 12.9 WNW 13 17 1013.4 - 0.0 - Partly cloudy 10 - - - -
31/10:18am 12.0 WNW 17 25 1013.4 - 0.0 - Partly cloudy 6 - - - -
31/10:00am 13.7 WNW 15 20 1013.2 - 0.0 - Partly cloudy 10 - - - -
31/09:30am 12.6 W 15 19 1013.1 - 0.0 - Partly cloudy 10 - - - -
31/09:00am 12.5 WNW 13 16 1012.9 - 7.2 - Cloudy 10 - - - -
31/08:30am 11.5 WNW 15 21 1012.4 - 7.2 - Partly cloudy 10 - - - -
31/08:29am 11.6 WNW 15 21 1012.4 - 7.2 - Partly cloudy 10 - - - -
31/08:15am 11.7 WNW 15 24 1012.4 - 7.2 - Partly cloudy 10 - - - -
31/08:00am 11.5 WNW 14 21 1012.3 - 7.2 - Partly cloudy 5 - - - -
31/07:30am 11.7 WNW 15 21 1011.8 - 5.8 - Partly cloudy 3 - - - -
31/07:11am 11.8 NW 13 19 1011.4 - 5.4 - Partly cloudy 6 - - - -
31/07:00am 11.8 NW 12 17 1011.4 - 5.4 - Partly cloudy 10 - - - -
31/06:47am 11.8 NW 13 18 1011.2 - 5.4 - Partly cloudy 10 - - - -
31/06:37am 11.9 NW 9 13 1011.1 - 5.4 - Partly cloudy 6 - - - -
31/06:30am 11.9 NW 9 13 1011.0 - 5.4 - Partly cloudy 10 - - - -
31/06:13am 11.7 NW 11 16 1010.7 - 5.4 - Partly cloudy 10 - - - -
31/06:00am 11.7 NW 10 15 1010.6 - 5.4 - Partly cloudy 10 - - - -
31/05:30am 11.9 NW 13 18 1010.3 - 5.4 - Partly cloudy 10 - - - -
31/05:00am 12.3 NW 14 21 1010.1 - 5.4 - Partly cloudy 10 - - - -
31/04:46am 12.1 NW 12 17 1009.9 - 5.4 - Partly cloudy 10 - - - -
31/04:35am 12.2 NW 13 19 1009.7 - 5.4 - Partly cloudy 10 - - - -
31/04:30am 12.1 NW 12 19 1009.7 - 5.4 - Partly cloudy 10 - - - -
31/04:00am 12.4 NW 12 20 1009.7 - 5.4 - Cloudy 10 - - - -
31/03:31am 12.4 NW 13 18 1009.7 - 5.4 - Partly cloudy 10 - - - -
31/03:30am 12.4 NW 13 18 1009.7 - 5.4 - Partly cloudy 10 - - - -
31/03:00am 12.1 NNW 11 17 1009.7 - 5.2 - - 10 - - - -
31/02:30am 12.0 NNW 11 16 1010.1 - 5.2 - Partly cloudy 10 - - - -
31/02:00am 12.2 NNW 9 14 1010.3 - 5.2 - Partly cloudy 10 - - - -
31/01:30am 12.2 N 8 12 1010.5 - 5.2 - Partly cloudy 10 - - - -
31/01:00am 12.0 N 8 10 1010.9 - 4.8 - Partly cloudy 10 - - - -
31/12:30am 11.6 N 8 11 1010.9 - 4.0 - Partly cloudy 10 - - - -
31/12:03am 11.3 N 7 9 1010.7 - 4.0 - Partly cloudy 10 - - - -
31/12:00am 11.3 N 7 9 1010.8 - 4.0 - Cloudy 10 - - - -
 
Date/Time
EST
Temp
°C
Wind Pressure Rain since
9am
mm
Weather Cloud Vis
km
Sea
Height
m
Swell
Dir  Spd
kts
Gust
kts
hPa Trend Height
m
Period
s
Dir
30/11:43pm 11.3 N 7 11 1010.9 - 4.0 - Partly cloudy 10 - - - -
30/11:30pm 10.9 NNE 6 8 1011.0 - 4.0 - - 10 - - - -
30/11:00pm 11.3 NNE 5 7 1011.2 - 4.0 - - 10 - - - -
30/10:30pm 11.8 N 5 7 1011.3 - 4.0 - Partly cloudy 10 - - - -
30/10:00pm 12.5 NNE 6 8 1011.5 - 4.0 - Cloudy 10 - - - -
30/09:30pm 12.6 N 5 6 1011.6 - 4.0 - Partly cloudy 10 - - - -
30/09:07pm 12.7 NNW 5 6 1011.8 - 4.0 - Partly cloudy 10 - - - -
30/09:00pm 12.7 NNW 5 7 1011.8 - 4.0 - Cloudy 10 - - - -
30/08:30pm 12.6 NW 6 8 1011.7 - 4.0 - Cloudy 10 - - - -
30/08:00pm 12.3 NW 5 6 1011.5 - 4.0 - Partly cloudy 10 - - - -
30/07:48pm 12.4 NW 5 7 1011.6 - 4.0 - Partly cloudy 10 - - - -
30/07:35pm 12.5 NNW 5 7 1011.5 - 4.0 - Partly cloudy 10 - - - -
30/07:30pm 12.6 NNW 6 7 1011.5 - 4.0 - Partly cloudy 10 - - - -
30/07:00pm 12.8 N 6 8 1011.4 - 4.0 - Partly cloudy 10 - - - -
30/06:30pm 12.9 N 7 11 1011.3 - 4.0 - Cloudy 10 - - - -
30/06:18pm 13.0 N 8 11 1011.2 - 3.8 - Cloudy 10 - - - -
30/06:00pm 13.0 NNW 8 11 1010.9 - 3.8 - Cloudy 5 - - - -
30/05:55pm 13.0 NNW 7 10 1010.9 - 3.8 - Partly cloudy 6 - - - -
30/05:30pm 13.1 N 8 11 1010.7 - 3.8 - Partly cloudy 10 - - - -
30/05:18pm 13.1 N 9 12 1010.5 - 3.8 - Partly cloudy 10 - - - -
30/05:00pm 13.1 N 9 14 1010.3 - 3.8 - Partly cloudy 10 - - - -
30/04:58pm 13.0 N 10 14 1010.3 - 3.8 - Partly cloudy 10 - - - -
30/04:41pm 13.0 N 9 13 1010.3 - 3.8 - Partly cloudy 10 - - - -
30/04:32pm 12.9 N 9 12 1010.3 - 3.8 - Partly cloudy 10 - - - -
30/04:30pm 12.8 N 9 12 1010.3 - 3.8 - Partly cloudy 10 - - - -
30/04:20pm 12.7 N 9 14 1010.4 - 3.8 - Partly cloudy 6 - - - -
30/04:15pm 12.7 N 10 14 1010.5 - 3.4 - Partly cloudy 9 - - - -
30/04:00pm 12.8 N 10 13 1010.6 - 3.2 - Partly cloudy 5 - - - -
30/03:57pm 12.9 N 10 13 1010.7 - 3.0 - Partly cloudy 6 - - - -
30/03:30pm 13.2 N 9 13 1010.7 - 2.4 - Partly cloudy 10 - - - -
30/03:00pm 13.7 N 9 13 1010.7 - 2.4 Recent precip. Cloudy 10 - - - -
30/02:30pm 13.4 N 9 12 1010.7 - 2.4 - Partly cloudy 10 - - - -
30/02:00pm 13.8 N 11 17 1010.8 - 2.2 - Partly cloudy 10 - - - -
30/01:30pm 13.6 N 10 17 1011.0 - 2.2 - Partly cloudy 10 - - - -
30/01:00pm 13.1 N 12 19 1011.7 - 1.4 - Cloudy 10 - - - -
30/12:30pm 13.8 NNE 12 20 1012.2 - 0.6 - Partly cloudy 10 - - - -
30/12:00pm 13.7 NNE 13 19 1012.4 - 0.6 Recent precip. Cloudy 10 - - - -
30/11:30am 12.8 NNE 13 19 1012.8 - 0.2 - Cloudy 10 - - - -
30/11:00am 12.3 NNE 11 16 1013.2 - 0.2 - Cloudy 10 - - - -
30/10:30am 12.1 NNE 12 17 1013.6 - 0.2 - Partly cloudy 10 - - - -
30/10:00am 11.8 NNE 13 18 1014.0 - 0.2 - Partly cloudy 10 - - - -
30/09:30am 11.6 NNE 14 21 1014.6 - 0.2 - Partly cloudy 10 - - - -
30/09:00am 11.4 NNE 13 17 1014.8 - 4.0 - Cloudy 10 - - - -
30/08:30am 11.1 NNE 12 17 1014.9 - 4.0 - Cloudy 10 - - - -
30/08:00am 10.9 NNE 11 16 1014.8 - 4.0 - Partly cloudy 10 - - - -
30/07:30am 10.8 NNE 10 13 1015.1 - 4.0 - Partly cloudy 10 - - - -
30/07:00am 10.8 NE 10 13 1015.5 - 3.4 - Partly cloudy 10 - - - -
30/06:30am 10.8 NE 10 15 1015.5 - 3.2 - Partly cloudy 10 - - - -
30/06:00am 10.9 NE 9 15 1015.9 - 2.6 Rain Cloudy 10 - - - -
30/05:30am 11.0 NE 9 13 1016.0 - 2.2 - Partly cloudy 10 - - - -
30/05:00am 11.0 NE 9 15 1016.0 - 1.8 - Cloudy 10 - - - -
30/04:30am 11.1 NE 7 10 1016.4 - 1.4 - Partly cloudy 10 - - - -
30/04:00am 11.3 NE 9 13 1016.2 - 1.2 - Cloudy 10 - - - -
30/03:30am 11.5 NE 9 14 1016.4 - 1.0 - Cloudy 10 - - - -
30/03:00am 11.9 NNE 10 16 1016.8 - 0.8 Rain Mostly cloudy 10 - - - -
30/02:30am 12.5 NNE 10 16 1017.2 - 0.4 - Cloudy 10 - - - -
30/02:00am 13.4 NNE 12 18 1017.4 - 0.0 - Cloudy 10 - - - -
30/01:30am 14.1 NNE 7 11 1017.4 - 0.0 - Cloudy 10 - - - -
30/01:00am 14.2 NE 8 13 1016.8 - 0.0 - Partly cloudy 10 - - - -
30/12:30am 14.0 ENE 8 13 1016.5 - 0.0 - Cloudy 10 - - - -
30/12:00am 13.5 ENE 7 10 1016.9 - 0.0 - Mostly cloudy 10 - - - -
 
Date/Time
EST
Temp
°C
Wind Pressure Rain since
9am
mm
Weather Cloud Vis
km
Sea
Height
m
Swell
Dir  Spd
kts
Gust
kts
hPa Trend Height
m
Period
s
Dir
29/11:30pm 13.9 ENE 5 9 1017.6 - 0.0 - Cloudy 10 - - - -
29/11:00pm 14.1 ENE 7 12 1017.4 - 0.0 - Cloudy 10 - - - -
29/10:30pm 14.4 ENE 7 12 1017.7 - 0.0 - Cloudy 10 - - - -
29/10:00pm 14.5 ENE 8 12 1017.8 - 0.0 - Partly cloudy 10 - - - -
29/09:30pm 15.0 NE 8 12 1018.0 - 0.0 - Partly cloudy 10 - - - -
29/09:00pm 15.2 ENE 6 10 1018.0 - 0.0 - Cloudy 10 - - - -
29/08:30pm 15.1 ENE 7 11 1017.9 - 0.0 - Cloudy 10 - - - -
29/08:00pm 14.7 ENE 6 9 1017.7 - 0.0 - Partly cloudy 10 - - - -
29/07:30pm 14.9 ENE 7 10 1017.7 - 0.0 - Partly cloudy 10 - - - -
29/07:00pm 15.6 NE 6 8 1017.7 - 0.0 - Partly cloudy 10 - - - -
29/06:30pm 16.0 ENE 5 7 1017.6 - 0.0 - Cloudy 10 - - - -
29/06:00pm 16.6 NE 5 7 1017.5 - 0.0 - Cloudy 10 - - - -
29/05:30pm 17.0 NE 7 10 1017.0 - 0.0 - - 10 - - - -
29/05:00pm 17.9 NE 8 12 1016.9 - 0.0 - - 10 - - - -
29/04:30pm 19.0 NNE 10 16 1017.0 - 0.0 - - 10 - - - -
29/04:00pm 18.5 NNE 10 15 1016.9 - 0.0 - - 10 - - - -
29/03:30pm 19.3 NNE 11 15 1017.2 - 0.0 - Partly cloudy 10 - - - -
29/03:00pm 19.6 NNE 14 20 1017.6 - 0.0 - - 10 - - - -
29/02:30pm 19.3 NNE 11 17 1017.7 - 0.0 - Partly cloudy 10 - - - -
29/02:00pm 19.0 NNE 11 17 1018.0 - 0.0 - - 10 - - - -

Other Formats:

Comma delimited format used in spreadsheet applications
http://www.bom.gov.au/fwo/IDV60701/IDV60701.94828.axf

JavaScript Object Notation format (JSON) in row-major order
http://www.bom.gov.au/fwo/IDV60701/IDV60701.94828.json